createdAt,value
2023-02-19T00:00:40.632Z,100.00
2023-02-19T00:05:42.662Z,100.00
2023-02-19T00:10:44.867Z,100.00
2023-02-19T00:21:11.516Z,100.00
2023-02-19T00:26:18.475Z,100.00
2023-02-19T00:31:24.643Z,100.00
2023-02-19T00:36:28.159Z,100.00
2023-02-19T00:41:30.569Z,100.00
2023-02-19T00:46:36.021Z,100.00
2023-02-19T00:51:38.922Z,100.00
2023-02-19T00:56:41.304Z,100.00
2023-02-19T01:01:45.142Z,100.00
2023-02-19T01:06:47.340Z,100.00
2023-02-19T01:11:49.437Z,100.00
2023-02-19T01:16:52.862Z,100.00
2023-02-19T01:21:55.345Z,100.00
2023-02-19T01:26:57.767Z,100.00
2023-02-19T01:32:01.542Z,100.00
2023-02-19T01:37:03.690Z,100.00
2023-02-19T01:42:06.470Z,100.00
2023-02-19T01:47:09.971Z,100.00
2023-02-19T01:52:15.746Z,100.00
2023-02-19T01:57:23.079Z,100.00
2023-02-19T02:02:26.652Z,100.00
2023-02-19T02:07:28.639Z,100.00
2023-02-19T02:12:30.671Z,100.00
2023-02-19T02:17:44.195Z,100.00
2023-02-19T02:22:53.212Z,100.00
2023-02-19T02:33:44.741Z,100.00
2023-02-19T02:44:34.373Z,100.00
2023-02-19T02:49:37.940Z,100.00
2023-02-19T02:54:40.120Z,100.00
2023-02-19T02:59:43.622Z,100.00
2023-02-19T03:04:52.835Z,100.00
2023-02-19T03:09:57.103Z,100.00
2023-02-19T03:15:04.632Z,100.00
2023-02-19T03:20:14.158Z,100.00
2023-02-19T03:25:28.530Z,100.00
2023-02-19T03:36:22.830Z,97.56
2023-02-19T03:41:31.192Z,96.86
2023-02-19T03:46:42.588Z,96.66
2023-02-19T03:51:51.810Z,97.59
2023-02-19T03:57:00.605Z,99.14
2023-02-19T04:02:34.366Z,99.35
2023-02-19T04:07:42.691Z,99.71
2023-02-19T04:12:50.337Z,99.56
2023-02-19T04:17:56.754Z,99.98
2023-02-19T04:23:00.353Z,100.00
2023-02-19T04:28:02.852Z,99.17
2023-02-19T04:33:05.128Z,99.85
2023-02-19T04:38:08.465Z,100.00
2023-02-19T04:43:11.328Z,100.00
2023-02-19T04:48:13.484Z,99.92
2023-02-19T04:53:17.019Z,100.00
2023-02-19T04:58:20.452Z,100.00
2023-02-19T05:03:22.182Z,100.00
2023-02-19T05:08:25.520Z,100.00
2023-02-19T05:13:28.102Z,100.00
2023-02-19T05:18:31.626Z,100.00
2023-02-19T05:23:39.711Z,100.00
2023-02-19T05:28:41.853Z,100.00
2023-02-19T05:33:44.839Z,100.00
2023-02-19T05:38:51.929Z,100.00
2023-02-19T05:43:54.788Z,100.00
2023-02-19T05:48:57.003Z,100.00
2023-02-19T05:54:00.517Z,100.00
2023-02-19T05:59:05.373Z,100.00
2023-02-19T06:04:07.420Z,100.00
2023-02-19T06:09:11.813Z,100.00
2023-02-19T06:14:14.503Z,100.00
2023-02-19T06:19:17.074Z,100.00
2023-02-19T06:24:20.716Z,100.00
2023-02-19T06:29:22.794Z,100.00
2023-02-19T06:34:25.342Z,100.00
2023-02-19T06:39:28.911Z,100.00
2023-02-19T06:44:36.993Z,100.00
2023-02-19T06:49:48.619Z,100.00
2023-02-19T06:54:51.961Z,100.00
2023-02-19T06:59:53.948Z,100.00
2023-02-19T07:04:56.082Z,100.00
2023-02-19T07:09:59.267Z,100.00
2023-02-19T07:15:01.288Z,100.00
2023-02-19T07:20:04.091Z,100.00
2023-02-19T07:25:07.809Z,99.67
2023-02-19T07:30:10.855Z,99.39
2023-02-19T07:35:13.282Z,99.52
2023-02-19T07:40:16.497Z,99.79
2023-02-19T07:45:18.612Z,98.69
2023-02-19T07:50:20.683Z,98.50
2023-02-19T07:55:23.800Z,98.87
2023-02-19T08:00:26.557Z,98.34
2023-02-19T08:05:30.251Z,98.26
2023-02-19T08:10:33.457Z,98.64
2023-02-19T08:15:35.879Z,98.13
2023-02-19T08:20:37.682Z,97.47
2023-02-19T08:25:41.892Z,97.30
2023-02-19T08:30:45.897Z,96.28
2023-02-19T08:35:49.230Z,95.69
2023-02-19T08:40:52.843Z,94.33
2023-02-19T08:46:05.337Z,92.45
2023-02-19T08:51:11.571Z,91.94
2023-02-19T08:56:32.187Z,90.03
2023-02-19T09:01:34.859Z,89.23
2023-02-19T09:06:39.151Z,86.26
2023-02-19T09:11:43.331Z,86.09
2023-02-19T09:16:45.241Z,83.22
2023-02-19T09:21:47.423Z,84.94
2023-02-19T09:26:51.080Z,84.47
2023-02-19T09:31:56.182Z,84.96
2023-02-19T09:36:58.249Z,83.99
2023-02-19T09:42:04.626Z,83.36
2023-02-19T09:47:13.566Z,82.53
2023-02-19T09:52:19.525Z,81.35
2023-02-19T09:57:24.478Z,81.03
2023-02-19T10:02:27.351Z,79.20
2023-02-19T10:07:37.210Z,77.58
2023-02-19T10:12:45.701Z,75.69
2023-02-19T10:18:03.221Z,75.22
2023-02-19T10:23:08.259Z,73.41
2023-02-19T10:28:15.521Z,70.23
2023-02-19T10:33:17.314Z,56.34
2023-02-19T10:38:36.798Z,52.79
2023-02-19T10:43:43.336Z,51.08
2023-02-19T10:48:50.049Z,42.44
2023-02-19T10:54:04.706Z,44.93
2023-02-19T10:59:24.609Z,44.49
2023-02-19T11:04:28.381Z,45.92
2023-02-19T11:09:37.425Z,49.16
2023-02-19T11:14:44.130Z,49.05
2023-02-19T11:19:46.991Z,51.97
2023-02-19T11:24:51.170Z,44.99
2023-02-19T11:29:54.970Z,45.66
2023-02-19T11:35:15.311Z,52.56
2023-02-19T11:40:17.921Z,53.02
2023-02-19T11:45:35.098Z,55.12
2023-02-19T11:50:48.369Z,60.28
2023-02-19T11:56:09.744Z,62.78
2023-02-19T12:01:24.120Z,60.66
2023-02-19T12:06:34.779Z,60.15
2023-02-19T12:11:50.139Z,58.04
2023-02-19T12:17:02.739Z,60.22
2023-02-19T12:22:38.218Z,58.43
2023-02-19T12:27:50.321Z,61.38
2023-02-19T12:33:20.882Z,60.33
2023-02-19T12:44:17.132Z,59.57
2023-02-19T12:49:40.502Z,57.00
2023-02-19T12:54:45.791Z,57.63
2023-02-19T12:59:53.853Z,55.76
2023-02-19T13:05:04.691Z,57.75
2023-02-19T13:10:19.518Z,55.60
2023-02-19T13:15:28.545Z,56.48
2023-02-19T13:20:36.857Z,55.96
2023-02-19T13:25:49.515Z,55.36
2023-02-19T13:31:16.390Z,56.56
2023-02-19T13:36:25.898Z,54.66
2023-02-19T13:41:30.109Z,55.64
2023-02-19T13:46:38.912Z,54.05
2023-02-19T13:51:50.810Z,53.15
2023-02-19T13:57:26.093Z,55.67
2023-02-19T14:02:32.163Z,55.72
2023-02-19T14:07:54.936Z,56.50
2023-02-19T14:12:57.216Z,56.10
2023-02-19T14:17:59.287Z,55.88
2023-02-19T14:23:24.499Z,56.08
2023-02-19T14:28:30.586Z,55.99
2023-02-19T14:33:35.484Z,57.14
2023-02-19T14:38:45.895Z,58.33
2023-02-19T14:43:50.518Z,58.66
2023-02-19T14:48:52.469Z,58.23
2023-02-19T14:53:57.468Z,57.93
2023-02-19T14:59:21.335Z,58.25
2023-02-19T15:04:25.283Z,58.13
2023-02-19T15:09:32.734Z,57.99
2023-02-19T15:14:35.196Z,57.04
2023-02-19T15:19:37.456Z,57.22
2023-02-19T15:24:43.840Z,56.25
2023-02-19T15:29:46.552Z,57.06
2023-02-19T15:34:56.419Z,58.50
2023-02-19T15:40:03.492Z,58.58
2023-02-19T15:45:15.617Z,59.28
2023-02-19T15:50:22.687Z,59.50
2023-02-19T15:55:33.085Z,61.07
2023-02-19T16:00:40.058Z,60.48
2023-02-19T16:05:41.855Z,60.89
2023-02-19T16:10:55.502Z,61.12
2023-02-19T16:16:07.042Z,61.29
2023-02-19T16:21:09.325Z,61.82
2023-02-19T16:26:12.718Z,62.42
2023-02-19T16:31:15.716Z,64.13
2023-02-19T16:36:20.433Z,64.57
2023-02-19T16:41:58.784Z,64.68
2023-02-19T16:47:05.507Z,65.74
2023-02-19T16:52:07.664Z,66.55
2023-02-19T16:57:09.855Z,67.36
2023-02-19T17:02:18.666Z,69.41
2023-02-19T17:07:20.698Z,70.60
2023-02-19T17:12:23.736Z,71.42
2023-02-19T17:17:26.911Z,73.42
2023-02-19T17:22:28.836Z,75.12
2023-02-19T17:27:30.637Z,77.32
2023-02-19T17:32:34.117Z,78.58
2023-02-19T17:37:35.911Z,78.00
2023-02-19T17:42:38.018Z,79.76
2023-02-19T17:47:41.869Z,81.13
2023-02-19T17:52:43.729Z,81.09
2023-02-19T17:57:46.578Z,80.81
2023-02-19T18:02:50.510Z,82.99
2023-02-19T18:07:52.808Z,83.97
2023-02-19T18:12:54.898Z,82.94
2023-02-19T18:17:58.138Z,82.93
2023-02-19T18:23:00.714Z,85.20
2023-02-19T18:28:03.565Z,85.32
2023-02-19T18:33:07.245Z,86.33
2023-02-19T18:38:10.034Z,86.57
2023-02-19T18:43:12.504Z,87.56
2023-02-19T18:48:17.601Z,87.10
2023-02-19T18:53:19.406Z,87.77
2023-02-19T18:58:21.156Z,87.45
2023-02-19T19:03:24.857Z,87.52
2023-02-19T19:08:27.466Z,87.41
2023-02-19T19:13:30.879Z,89.21
2023-02-19T19:18:34.254Z,88.06
2023-02-19T19:23:36.920Z,87.29
2023-02-19T19:28:40.636Z,87.46
2023-02-19T19:33:45.133Z,87.15
2023-02-19T19:38:48.011Z,88.05
2023-02-19T19:43:50.558Z,88.59
2023-02-19T19:48:54.811Z,90.27
2023-02-19T19:53:56.643Z,90.43
2023-02-19T19:58:59.090Z,90.33
2023-02-19T20:04:03.378Z,90.41
2023-02-19T20:09:05.894Z,90.84
2023-02-19T20:14:08.426Z,92.08
2023-02-19T20:19:13.592Z,90.95
2023-02-19T20:24:16.334Z,91.90
2023-02-19T20:29:18.732Z,91.84
2023-02-19T20:34:23.289Z,91.87
2023-02-19T20:39:25.497Z,92.26
2023-02-19T20:44:28.777Z,93.12
2023-02-19T20:49:32.253Z,93.14
2023-02-19T20:54:36.277Z,93.21
2023-02-19T20:59:38.768Z,92.88
2023-02-19T21:04:42.586Z,93.79
2023-02-19T21:09:44.889Z,94.49
2023-02-19T21:14:47.267Z,94.74
2023-02-19T21:19:50.847Z,94.95
2023-02-19T21:24:52.997Z,95.43
2023-02-19T21:29:54.898Z,95.75
2023-02-19T21:34:58.319Z,96.70
2023-02-19T21:40:00.476Z,96.34
2023-02-19T21:45:03.193Z,96.76
2023-02-19T21:50:07.812Z,96.40
2023-02-19T21:55:10.005Z,96.37
2023-02-19T22:00:13.189Z,96.57
2023-02-19T22:05:17.366Z,96.86
2023-02-19T22:10:20.068Z,97.71
2023-02-19T22:15:21.823Z,97.70
2023-02-19T22:20:25.432Z,97.38
2023-02-19T22:25:28.008Z,97.54
2023-02-19T22:30:30.089Z,97.19
2023-02-19T22:35:34.089Z,97.68
2023-02-19T22:40:35.953Z,97.60
2023-02-19T22:45:38.519Z,97.57
2023-02-19T22:50:42.143Z,97.47
2023-02-19T22:55:44.301Z,97.08
2023-02-19T23:00:46.640Z,96.58
2023-02-19T23:05:50.160Z,96.36
2023-02-19T23:10:52.224Z,97.16
2023-02-19T23:15:53.992Z,96.84
2023-02-19T23:20:57.368Z,97.23
2023-02-19T23:25:59.567Z,96.78
2023-02-19T23:31:02.257Z,97.00
2023-02-19T23:36:07.242Z,97.47
2023-02-19T23:41:09.708Z,98.11
2023-02-19T23:46:14.997Z,98.58
2023-02-19T23:51:18.827Z,98.66
2023-02-19T23:56:23.674Z,98.48
